Time;durP1;ratioP1;P1;durP2;ratioP2;P2;SDS_P1;SDS_P2;PMS_P1;PMS_P2;Temp;Humidity;BMP_temperature;BMP_pressure;BME280_temperature;BME280_humidity;BME280_pressure;Samples;Min_cycle;Max_cycle;Signal;HPM_P1;HPM_P2
2022/08/29 00:00:34;;;;;;;10.73;1.35;;;;;;;15.66;52.62;102090.22;4991643;28;20445;-79
2022/08/29 00:03:02;;;;;;;9.00;1.27;;;;;;;15.58;52.98;102083.50;4985970;28;22212;-78
2022/08/29 00:05:33;;;;;;;8.18;1.65;;;;;;;15.65;52.83;102085.88;4996331;28;20072;-77
2022/08/29 00:08:00;;;;;;;11.52;1.92;;;;;;;15.70;52.95;102095.28;4987103;28;20037;-77
2022/08/29 00:10:27;;;;;;;8.52;1.17;;;;;;;15.71;52.97;102083.00;4992668;28;20041;-78
2022/08/29 00:12:53;;;;;;;6.15;1.42;;;;;;;15.56;53.10;102087.97;4991354;28;20472;-76
2022/08/29 00:15:20;;;;;;;10.68;2.15;;;;;;;15.67;53.00;102076.13;5007963;28;20076;-77
2022/08/29 00:17:46;;;;;;;14.00;2.38;;;;;;;15.50;53.01;102080.31;5000279;28;20084;-76
2022/08/29 00:20:16;;;;;;;14.40;1.48;;;;;;;15.54;53.24;102079.28;4989241;28;20030;-79
2022/08/29 00:22:42;;;;;;;12.20;2.08;;;;;;;15.68;52.90;102075.19;4983063;28;20056;-77
2022/08/29 00:25:09;;;;;;;8.38;1.25;;;;;;;15.72;52.74;102077.63;4986509;28;20551;-75
2022/08/29 00:27:35;;;;;;;11.80;2.95;;;;;;;15.77;52.79;102080.06;4977291;28;20124;-76
2022/08/29 00:30:00;;;;;;;19.40;2.13;;;;;;;15.67;52.86;102073.50;4982901;28;20929;-78
2022/08/29 00:32:33;;;;;;;7.85;2.85;;;;;;;15.75;53.01;102082.81;5017801;28;20381;-78
2022/08/29 00:35:00;;;;;;;15.98;1.80;;;;;;;15.37;54.38;102081.75;5000046;28;20499;-77
2022/08/29 00:37:26;;;;;;;9.50;1.77;;;;;;;15.36;54.94;102080.06;5002005;28;20076;-78
2022/08/29 00:39:52;;;;;;;15.93;2.00;;;;;;;15.53;54.53;102082.84;4985714;28;20038;-78
2022/08/29 00:42:17;;;;;;;17.10;1.92;;;;;;;15.49;54.91;102080.41;4999188;28;20885;-77
2022/08/29 00:44:42;;;;;;;12.20;2.05;;;;;;;15.37;55.20;102085.25;5003382;28;20041;-77
2022/08/29 00:47:11;;;;;;;11.88;2.60;;;;;;;15.43;55.42;102078.88;4983985;28;20037;-75
2022/08/29 00:49:40;;;;;;;10.82;2.45;;;;;;;15.15;56.30;102082.63;5000278;28;20045;-77
2022/08/29 00:52:37;;;;;;;14.68;2.08;;;;;;;15.26;56.35;102079.59;5002195;28;20128;-77
2022/08/29 00:55:09;;;;;;;14.10;2.58;;;;;;;15.27;56.34;102077.81;4969926;28;20050;-75
2022/08/29 00:57:36;;;;;;;8.73;2.08;;;;;;;15.30;56.34;102075.03;4992878;28;20076;-74
2022/08/29 01:00:05;;;;;;;4.32;1.73;;;;;;;15.43;56.43;102070.13;5005776;28;20037;-77
2022/08/29 01:02:30;;;;;;;13.23;2.30;;;;;;;15.31;56.41;102064.44;4985725;28;20076;-77
2022/08/29 01:04:56;;;;;;;22.80;2.78;;;;;;;15.36;56.49;102069.50;4984814;28;20641;-77
2022/08/29 01:07:22;;;;;;;11.88;1.90;;;;;;;15.33;56.32;102069.66;4984749;28;20034;-77
2022/08/29 01:09:48;;;;;;;9.32;2.25;;;;;;;15.30;56.57;102064.50;5001854;28;20262;-77
2022/08/29 01:12:15;;;;;;;20.02;2.50;;;;;;;15.30;56.86;102062.72;4997469;28;20042;-77
2022/08/29 01:14:54;;;;;;;15.88;2.13;;;;;;;15.29;56.61;102071.53;5008776;28;20113;-77
2022/08/29 01:17:26;;;;;;;11.50;1.48;;;;;;;15.32;56.53;102066.13;5002941;28;20164;-78
2022/08/29 01:19:59;;;;;;;6.70;2.10;;;;;;;15.41;56.59;102062.25;5000237;28;20481;-77
2022/08/29 01:22:38;;;;;;;16.40;2.53;;;;;;;15.41;56.34;102070.16;4983224;28;20041;-75
2022/08/29 01:25:11;;;;;;;13.10;3.10;;;;;;;15.35;56.69;102070.44;5016648;28;20034;-78
2022/08/29 01:27:40;;;;;;;12.48;2.67;;;;;;;15.44;56.56;102072.69;4985083;28;20141;-78
2022/08/29 01:30:07;;;;;;;12.48;2.90;;;;;;;15.35;56.83;102071.28;5002845;28;20132;-77
2022/08/29 01:32:32;;;;;;;16.13;2.25;;;;;;;15.13;57.06;102073.91;5001469;28;20222;-77
2022/08/29 01:34:58;;;;;;;12.00;2.33;;;;;;;15.35;56.77;102065.19;5002340;28;20605;-77
2022/08/29 01:37:28;;;;;;;8.25;1.88;;;;;;;15.33;56.85;102080.19;5007808;28;20079;-77
2022/08/29 01:39:53;;;;;;;8.90;2.00;;;;;;;15.26;56.67;102069.03;4980205;28;20045;-78
2022/08/29 01:42:22;;;;;;;6.05;2.42;;;;;;;15.37;56.81;102066.81;5000758;28;20038;-78
2022/08/29 01:44:59;;;;;;;16.05;2.95;;;;;;;15.51;56.26;102075.94;5004467;28;20034;-78
2022/08/29 01:47:28;;;;;;;17.63;2.78;;;;;;;15.43;56.45;102070.97;4999728;28;20057;-78
2022/08/29 01:49:54;;;;;;;12.68;2.83;;;;;;;15.58;55.85;102072.97;5009881;28;20068;-78
2022/08/29 01:52:21;;;;;;;6.28;1.70;;;;;;;15.52;56.41;102075.00;4988820;28;20034;-78
2022/08/29 01:54:47;;;;;;;8.88;2.78;;;;;;;15.65;56.14;102075.34;5004425;28;20042;-79
2022/08/29 01:57:14;;;;;;;12.00;2.92;;;;;;;15.54;55.93;102071.38;4989031;28;20045;-78
2022/08/29 01:59:41;;;;;;;12.15;3.03;;;;;;;15.62;55.96;102068.44;5008893;28;20041;-77
2022/08/29 02:02:11;;;;;;;11.60;2.38;;;;;;;15.58;56.20;102069.47;4965116;28;20211;-79
2022/08/29 02:04:39;;;;;;;17.90;3.13;;;;;;;15.52;56.13;102070.56;5003646;28;20030;-77
2022/08/29 02:07:05;;;;;;;13.80;2.72;;;;;;;15.61;55.96;102071.97;5001951;28;20290;-76
2022/08/29 02:09:30;;;;;;;11.77;2.67;;;;;;;15.62;56.49;102072.81;4992593;28;20026;-77
2022/08/29 02:11:57;;;;;;;11.82;3.17;;;;;;;15.65;55.95;102076.19;4978928;28;20044;-77
2022/08/29 02:14:23;;;;;;;6.10;2.20;;;;;;;15.69;55.75;102072.50;4994311;28;20072;-77
2022/08/29 02:16:48;;;;;;;17.30;3.35;;;;;;;15.50;56.25;102072.41;4989062;28;20119;-79
2022/08/29 02:19:15;;;;;;;15.18;2.75;;;;;;;15.65;56.16;102070.06;4997876;28;20097;-76
2022/08/29 02:21:41;;;;;;;9.52;2.40;;;;;;;15.41;56.14;102067.53;5006371;28;20405;-77
2022/08/29 02:24:07;;;;;;;6.95;1.98;;;;;;;15.55;56.26;102065.19;4995646;28;20661;-77
2022/08/29 02:26:33;;;;;;;12.45;2.83;;;;;;;15.57;56.12;102067.75;5006933;28;20119;-76
2022/08/29 02:28:58;;;;;;;8.90;2.10;;;;;;;15.59;55.85;102066.78;5006247;28;20068;-77
2022/08/29 02:31:24;;;;;;;13.65;2.80;;;;;;;15.52;56.35;102065.31;5007710;28;20100;-77
2022/08/29 02:33:51;;;;;;;11.88;2.40;;;;;;;15.58;56.30;102065.06;4990154;28;20163;-77
2022/08/29 02:36:18;;;;;;;15.77;2.95;;;;;;;15.53;56.23;102064.41;4989179;28;20112;-77
2022/08/29 02:38:44;;;;;;;12.55;2.72;;;;;;;15.55;56.46;102065.19;5004017;28;20141;-77
2022/08/29 02:41:10;;;;;;;11.07;3.22;;;;;;;15.61;56.14;102063.22;5003134;28;21772;-79
2022/08/29 02:43:36;;;;;;;10.18;2.78;;;;;;;15.59;56.03;102066.78;5000727;28;20149;-77
2022/08/29 02:46:02;;;;;;;10.70;3.35;;;;;;;15.67;56.19;102070.88;4985537;28;20049;-80
2022/08/29 02:48:27;;;;;;;14.52;4.20;;;;;;;15.68;56.05;102070.78;4991547;28;20338;-79
2022/08/29 02:50:55;;;;;;;8.73;2.40;;;;;;;15.70;55.80;102068.09;4989885;28;20054;-78
2022/08/29 02:53:23;;;;;;;11.68;3.22;;;;;;;15.72;55.82;102066.25;4981876;28;20087;-78
2022/08/29 02:55:50;;;;;;;13.88;2.45;;;;;;;15.74;55.63;102064.41;5003757;28;20491;-79
2022/08/29 02:58:17;;;;;;;14.27;2.67;;;;;;;15.83;55.46;102063.16;4987975;28;20045;-77
2022/08/29 03:00:43;;;;;;;25.48;4.07;;;;;;;15.80;55.20;102058.88;5001841;28;20042;-79
2022/08/29 03:03:09;;;;;;;11.18;3.67;;;;;;;15.82;55.63;102058.78;4992433;28;20158;-79
2022/08/29 03:05:35;;;;;;;14.32;2.65;;;;;;;15.80;55.79;102059.72;4990612;28;20443;-79
2022/08/29 03:08:08;;;;;;;10.95;2.85;;;;;;;15.85;55.53;102063.94;5005564;28;20112;-79
2022/08/29 03:10:34;;;;;;;14.63;3.15;;;;;;;15.83;55.84;102058.72;5007003;28;20041;-78
2022/08/29 03:13:00;;;;;;;16.20;3.53;;;;;;;15.87;55.48;102044.50;4986552;28;20439;-77
2022/08/29 03:15:26;;;;;;;10.48;3.60;;;;;;;15.73;55.94;102054.81;5007253;28;20033;-79
2022/08/29 03:17:52;;;;;;;10.70;3.72;;;;;;;15.84;55.95;102057.81;4986303;28;20485;-79
2022/08/29 03:20:20;;;;;;;18.00;3.17;;;;;;;15.80;56.02;102053.59;5005133;28;20033;-77
2022/08/29 03:22:46;;;;;;;7.15;2.88;;;;;;;15.83;55.96;102052.59;4987229;28;20128;-79
2022/08/29 03:25:13;;;;;;;9.25;2.28;;;;;;;15.85;55.70;102056.88;4990942;28;20116;-78
2022/08/29 03:27:39;;;;;;;10.20;3.53;;;;;;;15.87;55.85;102055.03;5000722;28;20108;-77
2022/08/29 03:30:11;;;;;;;8.05;2.10;;;;;;;15.94;55.82;102056.47;4989152;28;20462;-77
2022/08/29 03:32:38;;;;;;;14.32;2.33;;;;;;;15.95;55.71;102057.31;4985955;28;20049;-77
2022/08/29 03:35:04;;;;;;;15.60;3.85;;;;;;;15.97;55.41;102061.63;5003241;28;20022;-77
2022/08/29 03:37:30;;;;;;;13.40;2.70;;;;;;;15.93;55.47;102060.06;5005223;28;20045;-77
2022/08/29 03:39:55;;;;;;;18.58;2.78;;;;;;;15.87;55.42;102051.56;5003869;28;20080;-77
2022/08/29 03:42:21;;;;;;;13.23;3.83;;;;;;;15.85;55.89;102056.88;5002585;28;20403;-75
2022/08/29 03:44:46;;;;;;;13.50;3.28;;;;;;;15.91;55.72;102061.91;4987458;28;20026;-76
2022/08/29 03:47:12;;;;;;;17.17;2.92;;;;;;;15.90;55.59;102059.31;4970199;28;20467;-77
2022/08/29 03:49:37;;;;;;;17.77;3.45;;;;;;;15.85;55.69;102059.53;4985464;28;20034;-78
2022/08/29 03:52:04;;;;;;;10.27;3.67;;;;;;;15.78;55.74;102060.72;4988773;28;20029;-77
2022/08/29 03:54:29;;;;;;;16.40;4.03;;;;;;;15.80;55.67;102065.00;5009746;28;20040;-77
2022/08/29 03:56:55;;;;;;;13.48;2.63;;;;;;;15.74;55.68;102059.13;4984339;28;20054;-75
2022/08/29 03:59:21;;;;;;;7.88;2.53;;;;;;;15.71;56.09;102056.66;5008093;28;20049;-77
2022/08/29 04:01:47;;;;;;;12.40;3.10;;;;;;;15.68;56.15;102064.66;5005565;28;20041;-76
2022/08/29 04:05:05;;;;;;;16.02;3.30;;;;;;;15.65;56.15;102064.81;4987714;28;20491;-76
2022/08/29 04:07:00;;;;;;;6.47;1.90;;;;;;;15.62;56.25;102064.91;5002856;28;20124;-77
2022/08/29 04:09:26;;;;;;;8.82;3.10;;;;;;;15.70;55.99;102076.00;4993401;28;20022;-76
2022/08/29 04:11:51;;;;;;;16.65;3.53;;;;;;;15.63;56.03;102077.19;5005656;28;20029;-77
2022/08/29 04:14:19;;;;;;;11.68;3.60;;;;;;;15.55;56.23;102081.00;4988256;28;20503;-78
2022/08/29 04:16:48;;;;;;;14.13;4.05;;;;;;;15.59;56.20;102072.06;4985259;28;20041;-78
2022/08/29 04:19:15;;;;;;;15.13;2.95;;;;;;;15.48;56.92;102074.28;5001959;28;20121;-76
2022/08/29 04:21:40;;;;;;;15.15;3.92;;;;;;;15.48;56.51;102069.03;4985037;28;20072;-77
2022/08/29 04:24:06;;;;;;;8.52;3.03;;;;;;;15.49;56.65;102069.88;5003940;28;20052;-79
2022/08/29 04:26:32;;;;;;;18.83;3.33;;;;;;;15.43;56.51;102073.59;4985136;28;20361;-77
2022/08/29 04:28:57;;;;;;;15.20;3.97;;;;;;;15.50;56.51;102077.69;4994375;28;20304;-78
2022/08/29 04:31:23;;;;;;;12.95;2.67;;;;;;;15.59;56.12;102087.88;4988086;28;20032;-76
2022/08/29 04:33:52;;;;;;;16.20;2.45;;;;;;;15.46;56.48;102081.41;5002368;28;20042;-78
2022/08/29 04:36:17;;;;;;;9.35;3.50;;;;;;;15.54;56.48;102079.28;5007109;28;20034;-78
2022/08/29 04:38:43;;;;;;;17.70;3.17;;;;;;;15.56;55.97;102087.97;4987333;28;20053;-77
2022/08/29 04:41:13;;;;;;;16.85;3.05;;;;;;;15.51;56.22;102078.56;4984004;28;20033;-76
2022/08/29 04:43:40;;;;;;;8.13;2.92;;;;;;;15.54;56.02;102081.91;5000688;28;20037;-77
2022/08/29 04:46:06;;;;;;;15.68;3.15;;;;;;;15.40;56.25;102079.00;4993400;28;20628;-77
2022/08/29 04:48:31;;;;;;;11.85;3.42;;;;;;;15.41;56.27;102090.41;4991817;28;20037;-79
2022/08/29 04:51:00;;;;;;;11.68;3.72;;;;;;;15.40;56.79;102079.00;5000024;28;20061;-78
2022/08/29 04:53:26;;;;;;;15.73;2.97;;;;;;;15.47;56.56;102091.00;4994269;28;20462;-76
2022/08/29 04:55:57;;;;;;;12.25;2.70;;;;;;;15.50;56.90;102090.88;4998072;28;20259;-78
2022/08/29 04:58:24;;;;;;;26.27;3.45;;;;;;;15.61;56.47;102094.84;4995826;28;20038;-78
2022/08/29 05:00:50;;;;;;;13.52;2.88;;;;;;;15.61;56.25;102094.84;4977015;28;20117;-78
2022/08/29 05:03:16;;;;;;;14.77;3.22;;;;;;;15.55;56.60;102094.19;4988971;28;20038;-78
2022/08/29 05:05:42;;;;;;;13.68;2.25;;;;;;;15.69;56.21;102090.13;5005364;28;20033;-77
2022/08/29 05:08:07;;;;;;;16.65;2.47;;;;;;;15.68;56.05;102091.00;4981228;28;20053;-78
2022/08/29 05:10:33;;;;;;;17.52;3.00;;;;;;;15.77;56.19;102101.16;5003356;28;20503;-78
2022/08/29 05:12:58;;;;;;;9.70;4.35;;;;;;;15.84;56.00;102096.50;4973803;28;20103;-78
2022/08/29 05:15:24;;;;;;;13.60;3.38;;;;;;;15.79;55.83;102094.94;4985957;28;20037;-77
2022/08/29 05:17:50;;;;;;;17.35;3.65;;;;;;;15.88;55.97;102098.06;4990173;28;20116;-77
2022/08/29 05:20:15;;;;;;;11.63;2.17;;;;;;;16.01;55.95;102099.28;5002685;28;20433;-79
2022/08/29 05:22:41;;;;;;;10.30;2.47;;;;;;;16.09;55.95;102096.34;4985179;28;20042;-78
2022/08/29 05:25:08;;;;;;;10.05;2.40;;;;;;;16.16;55.68;102095.97;4982732;28;20033;-78
2022/08/29 05:27:34;;;;;;;9.38;2.85;;;;;;;16.31;55.22;102102.38;4997320;28;20045;-79
2022/08/29 05:30:01;;;;;;;12.20;2.78;;;;;;;16.47;55.20;102093.75;4992266;28;20722;-78
2022/08/29 05:32:26;;;;;;;16.40;2.97;;;;;;;16.78;54.47;102106.41;5000016;28;21010;-79
2022/08/29 05:34:54;;;;;;;9.55;3.13;;;;;;;17.17;53.84;102103.63;4985052;28;20045;-77
2022/08/29 05:37:20;;;;;;;11.80;1.92;;;;;;;18.25;51.75;102100.88;5001526;28;20053;-78
2022/08/29 05:39:47;;;;;;;9.63;2.58;;;;;;;18.37;49.85;102108.16;5002470;28;20033;-78
2022/08/29 05:42:15;;;;;;;10.55;2.05;;;;;;;18.56;48.78;102107.16;5001293;28;20393;-79
2022/08/29 05:44:41;;;;;;;14.60;2.53;;;;;;;18.21;48.70;102107.28;5001048;28;20084;-80
2022/08/29 05:47:10;;;;;;;5.07;2.08;;;;;;;18.18;48.94;102108.25;4982931;28;20057;-77
2022/08/29 05:49:37;;;;;;;7.50;2.42;;;;;;;18.20;48.62;102110.84;5016078;28;20057;-78
2022/08/29 05:52:03;;;;;;;9.18;1.67;;;;;;;18.88;47.22;102111.59;4997556;28;20041;-79
2022/08/29 05:54:32;;;;;;;6.38;1.75;;;;;;;19.20;46.34;102110.69;4991691;28;20026;-80
2022/08/29 05:56:58;;;;;;;9.82;1.58;;;;;;;21.05;43.54;102118.97;4989849;28;20073;-79
2022/08/29 05:59:23;;;;;;;6.72;1.67;;;;;;;22.55;39.03;102116.69;5003236;28;20067;-79
2022/08/29 06:01:49;;;;;;;15.63;2.70;;;;;;;23.15;37.59;102122.19;4995404;28;20046;-79
2022/08/29 06:04:15;;;;;;;6.68;1.48;;;;;;;23.44;36.26;102119.19;4987063;28;20041;-79
2022/08/29 06:06:41;;;;;;;12.48;1.98;;;;;;;23.92;35.24;102116.38;5007182;28;20099;-78
2022/08/29 06:09:07;;;;;;;7.30;1.48;;;;;;;23.53;36.16;102121.13;5007415;28;20026;-79
2022/08/29 06:11:33;;;;;;;3.80;1.20;;;;;;;22.67;37.56;102116.78;4990557;28;21056;-78
2022/08/29 06:13:59;;;;;;;8.00;1.30;;;;;;;22.84;37.12;102113.75;5008131;28;20029;-76
2022/08/29 06:16:26;;;;;;;8.48;1.88;;;;;;;23.14;36.63;102121.34;5006622;28;20640;-78
2022/08/29 06:18:52;;;;;;;9.27;1.75;;;;;;;22.25;37.73;102127.72;4986096;28;20050;-79
2022/08/29 06:21:18;;;;;;;10.32;2.08;;;;;;;21.25;40.42;102130.94;4992575;28;20555;-77
2022/08/29 06:23:45;;;;;;;10.60;2.47;;;;;;;21.58;39.81;102137.66;5008085;28;20034;-78
2022/08/29 06:26:12;;;;;;;5.78;1.20;;;;;;;22.29;38.75;102125.69;5018877;28;20127;-80
2022/08/29 06:28:42;;;;;;;5.95;1.23;;;;;;;22.55;38.25;102124.69;4991551;28;20063;-78
2022/08/29 06:31:10;;;;;;;6.60;1.33;;;;;;;22.17;39.05;102122.09;5020174;28;20515;-74
2022/08/29 06:33:36;;;;;;;7.68;1.35;;;;;;;21.60;39.50;102123.31;4984239;28;20049;-78
2022/08/29 06:36:06;;;;;;;10.45;1.95;;;;;;;20.87;42.15;102127.16;5005474;28;20065;-78
2022/08/29 06:38:32;;;;;;;7.32;1.75;;;;;;;20.47;42.69;102136.78;4989265;28;20122;-79
2022/08/29 06:41:05;;;;;;;6.45;1.58;;;;;;;20.65;42.80;102132.97;5003025;28;20330;-80
2022/08/29 06:43:30;;;;;;;14.73;1.63;;;;;;;21.32;40.50;102133.09;4994321;28;20053;-77
2022/08/29 06:45:56;;;;;;;7.28;2.17;;;;;;;21.38;41.68;102141.59;4993082;28;20041;-78
2022/08/29 06:48:21;;;;;;;10.60;1.90;;;;;;;22.12;39.71;102130.41;5005656;28;20057;-76
2022/08/29 06:50:47;;;;;;;7.40;1.50;;;;;;;22.88;37.41;102133.91;4986274;28;20030;-76
2022/08/29 06:53:12;;;;;;;6.85;1.02;;;;;;;23.29;37.22;102135.34;4988476;28;20076;-79
2022/08/29 06:55:38;;;;;;;13.65;2.38;;;;;;;23.70;35.91;102136.72;4986718;28;20099;-77
2022/08/29 06:58:04;;;;;;;8.20;1.45;;;;;;;23.71;35.68;102133.06;4994368;28;20041;-78
2022/08/29 07:00:30;;;;;;;7.05;1.55;;;;;;;23.02;37.06;102143.56;4987222;28;20036;-77
2022/08/29 07:02:55;;;;;;;14.85;1.30;;;;;;;21.99;39.83;102145.47;5003833;28;20672;-79
2022/08/29 07:05:22;;;;;;;13.98;2.22;;;;;;;20.95;41.68;102145.25;4992418;28;20144;-78
2022/08/29 07:07:50;;;;;;;15.38;1.13;;;;;;;20.08;43.96;102144.44;5009180;28;20109;-79
2022/08/29 07:10:17;;;;;;;6.30;1.13;;;;;;;19.24;45.98;102146.69;5002269;28;20060;-76
2022/08/29 07:12:42;;;;;;;7.55;0.98;;;;;;;19.01;46.27;102156.78;4997070;28;20662;-79
2022/08/29 07:15:08;;;;;;;7.72;1.00;;;;;;;18.79;47.16;102157.09;4989452;28;20148;-78
2022/08/29 07:17:34;;;;;;;10.60;1.50;;;;;;;18.78;47.00;102152.72;5022009;28;20316;-76
2022/08/29 07:19:59;;;;;;;9.80;1.52;;;;;;;19.07;46.31;102150.28;5006208;28;20041;-77
2022/08/29 07:22:25;;;;;;;17.05;1.83;;;;;;;19.75;44.80;102149.06;4991639;28;20038;-75
2022/08/29 07:24:52;;;;;;;9.13;1.38;;;;;;;20.33;43.34;102148.25;5003857;28;20577;-76
2022/08/29 07:27:18;;;;;;;10.60;1.17;;;;;;;21.64;40.67;102154.03;4993527;28;20053;-78
2022/08/29 07:29:44;;;;;;;16.08;1.45;;;;;;;21.43;40.89;102143.00;4978064;28;20034;-77
2022/08/29 07:32:09;;;;;;;9.27;1.17;;;;;;;20.88;42.22;102144.81;4980366;28;20054;-77
2022/08/29 07:34:35;;;;;;;7.75;1.20;;;;;;;20.70;42.88;102153.91;4997369;28;20068;-76
2022/08/29 07:37:03;;;;;;;8.88;1.98;;;;;;;20.18;43.56;102152.66;4988809;28;20058;-77
2022/08/29 07:39:29;;;;;;;7.03;1.40;;;;;;;20.05;43.93;102157.84;5007567;28;20061;-80
2022/08/29 07:41:55;;;;;;;14.27;1.73;;;;;;;20.23;43.50;102163.88;5003236;28;20559;-78
2022/08/29 07:44:21;;;;;;;13.13;2.45;;;;;;;19.72;44.55;102158.06;5003456;28;20035;-80
2022/08/29 07:46:47;;;;;;;8.23;1.00;;;;;;;19.68;44.68;102151.22;4984526;28;20046;-76
2022/08/29 07:49:13;;;;;;;10.35;2.42;;;;;;;20.74;41.98;102158.09;4987104;28;20076;-78
2022/08/29 07:51:39;;;;;;;9.85;1.00;;;;;;;22.62;38.27;102150.91;4986696;28;20029;-80
2022/08/29 07:54:06;;;;;;;11.77;1.42;;;;;;;21.87;39.46;102156.94;5001948;28;20038;-77
2022/08/29 07:56:38;;;;;;;8.00;1.38;;;;;;;21.82;39.72;102154.59;4984424;28;20056;-78
2022/08/29 07:59:05;;;;;;;8.75;1.35;;;;;;;24.15;34.92;102150.16;4987450;28;20038;-75
2022/08/29 08:01:30;;;;;;;9.38;1.20;;;;;;;23.21;36.04;102164.41;4995863;28;20040;-76
2022/08/29 08:03:57;;;;;;;8.65;1.08;;;;;;;21.87;38.49;102163.16;4988463;28;20054;-77
2022/08/29 08:06:24;;;;;;;11.23;2.03;;;;;;;21.73;39.41;102164.06;5009397;28;20072;-76
2022/08/29 08:08:50;;;;;;;10.23;1.67;;;;;;;20.92;41.15;102167.56;4999710;28;20097;-77
2022/08/29 08:11:18;;;;;;;9.50;1.75;;;;;;;19.90;43.15;102161.44;5002463;28;20239;-77
2022/08/29 08:13:43;;;;;;;8.27;1.27;;;;;;;19.83;43.19;102170.69;4997816;28;20050;-78
2022/08/29 08:16:13;;;;;;;7.80;1.23;;;;;;;19.59;44.10;102175.63;5000730;28;21353;-76
2022/08/29 08:18:39;;;;;;;6.35;0.90;;;;;;;19.95;43.77;102180.59;5004979;28;20044;-78
2022/08/29 08:21:05;;;;;;;8.68;1.20;;;;;;;20.09;43.67;102175.31;4983115;28;20037;-77
2022/08/29 08:23:31;;;;;;;6.18;1.17;;;;;;;19.41;44.53;102185.47;4987084;28;20541;-77
2022/08/29 08:25:57;;;;;;;12.07;2.17;;;;;;;19.55;44.89;102185.59;5013431;28;20127;-77
2022/08/29 08:28:22;;;;;;;7.55;1.17;;;;;;;19.54;44.65;102186.47;5001144;28;20487;-76
2022/08/29 08:30:48;;;;;;;7.68;0.63;;;;;;;19.58;44.24;102188.06;5005324;28;20038;-79
2022/08/29 08:33:13;;;;;;;13.25;1.30;;;;;;;19.35;45.21;102191.16;4984406;28;20466;-78
2022/08/29 08:35:39;;;;;;;2.85;0.77;;;;;;;19.30;45.33;102189.59;5003955;28;20035;-76
2022/08/29 08:38:07;;;;;;;9.63;1.27;;;;;;;19.92;43.96;102186.06;4987288;28;20413;-76
2022/08/29 08:40:40;;;;;;;6.88;0.85;;;;;;;19.93;43.27;102187.78;5017600;28;20034;-77
2022/08/29 08:43:08;;;;;;;3.17;0.77;;;;;;;19.93;43.03;102193.09;5007836;28;20038;-77
2022/08/29 08:45:41;;;;;;;3.50;0.80;;;;;;;20.43;41.74;102194.53;4991431;28;20029;-77
2022/08/29 08:48:17;;;;;;;12.43;1.58;;;;;;;20.77;40.82;102189.75;4981176;28;20109;-78
2022/08/29 08:50:50;;;;;;;7.18;1.38;;;;;;;20.43;41.37;102191.88;4991808;28;20029;-78
2022/08/29 08:53:22;;;;;;;7.07;0.85;;;;;;;20.58;41.56;102189.22;4998350;28;20037;-80
2022/08/29 08:55:49;;;;;;;;;;;;;;;20.48;41.96;102187.13;5001590;28;20030;-77
2022/08/29 08:58:35;;;;;;;5.50;1.00;;;;;;;20.30;42.53;102194.41;5002849;28;20553;-75
2022/08/29 09:01:21;;;;;;;3.97;0.82;;;;;;;20.32;42.21;102191.66;4999900;28;20514;-76
2022/08/29 09:04:09;;;;;;;4.82;0.95;;;;;;;20.50;41.90;102189.69;4998486;28;20038;-77
2022/08/29 09:06:56;;;;;;;5.55;1.13;;;;;;;20.79;41.09;102193.19;5002715;28;20132;-76
2022/08/29 09:09:47;;;;;;;7.53;1.25;;;;;;;20.88;40.13;102197.94;5019043;28;20185;-77
2022/08/29 09:12:25;;;;;;;9.40;1.30;;;;;;;20.75;40.62;102196.97;5015125;28;20497;-77
2022/08/29 09:15:06;;;;;;;6.18;0.65;;;;;;;20.62;40.71;102198.69;5001645;28;20034;-78
2022/08/29 09:17:46;;;;;;;2.58;0.57;;;;;;;20.51;41.15;102191.41;4997374;28;20061;-76
2022/08/29 09:20:24;;;;;;;9.85;1.23;;;;;;;20.81;40.17;102196.59;4980585;28;20099;-76
2022/08/29 09:23:21;;;;;;;4.55;0.52;;;;;;;20.70;41.39;102188.44;4982229;28;20571;-76
2022/08/29 09:25:47;;;;;;;6.88;1.05;;;;;;;20.49;41.13;102201.28;4989082;28;20503;-77
2022/08/29 09:28:13;;;;;;;6.93;1.08;;;;;;;20.24;41.90;102196.59;5003637;28;20064;-76
2022/08/29 09:30:41;;;;;;;6.75;0.82;;;;;;;19.98;43.20;102195.47;5007075;28;20461;-76
2022/08/29 09:33:11;;;;;;;8.82;0.73;;;;;;;19.94;43.00;102200.09;4991609;28;20058;-77
2022/08/29 09:35:41;;;;;;;9.40;1.00;;;;;;;19.70;42.91;102192.66;5005675;28;20052;-78
2022/08/29 09:38:17;;;;;;;2.63;0.90;;;;;;;19.48;43.74;102193.00;5002035;28;20041;-77
2022/08/29 09:40:48;;;;;;;6.50;0.77;;;;;;;19.56;43.85;102189.94;5020044;28;20056;-75
2022/08/29 09:43:37;;;;;;;2.88;0.60;;;;;;;19.47;44.26;102204.53;5004260;28;20341;-75
2022/08/29 09:46:09;;;;;;;5.20;1.10;;;;;;;19.37;44.59;102206.03;5005365;28;20049;-75
2022/08/29 09:48:37;;;;;;;4.88;0.40;;;;;;;19.02;44.85;102210.63;5012646;28;20056;-77
2022/08/29 09:51:08;;;;;;;5.05;0.50;;;;;;;19.28;44.14;102210.03;4994175;28;20030;-76
2022/08/29 09:53:34;;;;;;;5.93;0.45;;;;;;;19.15;45.01;102211.66;4987670;28;20053;-76
2022/08/29 09:56:06;;;;;;;3.55;0.60;;;;;;;19.08;44.88;102215.59;5001835;28;20079;-76
2022/08/29 09:58:38;;;;;;;17.92;1.27;;;;;;;19.34;44.47;102215.94;5007739;28;20627;-76
2022/08/29 10:01:08;;;;;;;2.15;0.50;;;;;;;19.49;44.24;102215.06;4999774;28;20037;-76
2022/08/29 10:03:39;;;;;;;3.92;0.40;;;;;;;19.53;44.41;102227.22;5023140;28;20136;-76
2022/08/29 10:06:14;;;;;;;3.88;0.50;;;;;;;19.37;45.64;102226.34;4998117;28;20061;-76
2022/08/29 10:08:42;;;;;;;4.72;1.38;;;;;;;19.44;46.01;102227.75;4994944;28;20137;-76
2022/08/29 10:11:27;;;;;;;2.33;0.50;;;;;;;19.22;46.28;102228.94;5004310;28;20038;-76
2022/08/29 10:13:57;;;;;;;3.95;0.73;;;;;;;19.14;46.58;102225.84;5007425;28;20049;-76
2022/08/29 10:16:26;;;;;;;4.80;0.70;;;;;;;19.05;47.50;102231.66;5004138;28;20124;-76
2022/08/29 10:19:01;;;;;;;2.45;0.40;;;;;;;18.94;47.84;102239.31;5009101;28;20041;-77
2022/08/29 10:21:54;;;;;;;3.05;0.50;;;;;;;18.84;47.69;102233.66;5004795;28;20025;-76
2022/08/29 10:24:55;;;;;;;3.22;0.40;;;;;;;18.97;47.32;102229.44;4997510;28;20128;-75
2022/08/29 10:27:23;;;;;;;4.03;1.42;;;;;;;19.29;46.04;102230.28;4991649;28;20132;-77
2022/08/29 10:29:57;;;;;;;3.75;0.40;;;;;;;19.26;45.95;102229.63;5008729;28;20068;-76
2022/08/29 10:32:42;;;;;;;4.55;0.65;;;;;;;19.55;43.58;102225.38;5020078;28;20054;-76
2022/08/29 10:36:01;;;;;;;2.30;0.45;;;;;;;19.46;43.82;102236.47;5005243;28;20456;-77
2022/08/29 10:38:42;;;;;;;3.13;0.82;;;;;;;19.62;43.25;102232.03;4946435;28;20105;-77
2022/08/29 10:41:38;;;;;;;3.88;0.32;;;;;;;19.85;42.76;102233.34;4998915;28;20057;-78
2022/08/29 10:44:30;;;;;;;5.28;0.85;;;;;;;20.39;41.57;102238.13;5001784;28;20045;-75
2022/08/29 10:47:13;;;;;;;4.75;0.50;;;;;;;20.68;41.25;102227.53;4997567;28;20041;-77
2022/08/29 10:49:58;;;;;;;2.22;0.25;;;;;;;20.83;40.58;102225.75;5015780;28;20034;-75
2022/08/29 10:52:24;;;;;;;2.42;0.20;;;;;;;20.66;40.37;102225.00;5016818;28;20046;-77
2022/08/29 10:55:08;;;;;;;8.52;0.50;;;;;;;20.74;40.56;102229.81;4987423;28;20516;-74
2022/08/29 10:57:39;;;;;;;3.33;0.52;;;;;;;20.84;39.52;102224.78;5013328;28;20045;-78
2022/08/29 11:00:10;;;;;;;2.25;0.30;;;;;;;21.14;38.76;102225.53;5010974;28;20427;-76
2022/08/29 11:02:57;;;;;;;1.77;0.20;;;;;;;21.50;37.75;102231.25;4984767;28;20052;-76
2022/08/29 11:05:32;;;;;;;1.85;0.40;;;;;;;21.19;38.72;102233.22;4997496;28;20034;-76
2022/08/29 11:08:04;;;;;;;2.17;0.57;;;;;;;20.97;38.11;102232.88;5016463;28;20049;-77
2022/08/29 11:10:39;;;;;;;4.45;0.30;;;;;;;21.24;38.25;102236.41;4995887;28;20034;-75
2022/08/29 11:13:29;;;;;;;3.50;0.50;;;;;;;21.27;37.51;102244.22;4982071;28;20030;-78
2022/08/29 11:16:24;;;;;;;6.47;0.40;;;;;;;21.31;38.28;102240.41;5000565;28;20048;-79
2022/08/29 11:19:21;;;;;;;2.75;0.77;;;;;;;21.42;37.51;102239.69;4999636;28;20042;-76
2022/08/29 11:21:50;;;;;;;3.38;0.30;;;;;;;21.57;37.71;102232.56;5000397;28;20056;-76
2022/08/29 11:24:19;;;;;;;1.45;0.45;;;;;;;21.60;36.96;102234.16;5000574;28;20386;-77
2022/08/29 11:26:56;;;;;;;4.40;0.40;;;;;;;21.75;37.21;102234.00;5002433;28;20481;-77
2022/08/29 11:30:01;;;;;;;5.03;0.52;;;;;;;22.61;35.45;102235.31;5001580;28;20511;-76
2022/08/29 11:32:37;;;;;;;4.18;0.55;;;;;;;22.54;36.05;102234.03;4992183;28;20457;-77